Time;durP1;ratioP1;P1;durP2;ratioP2;P2;SDS_P1;SDS_P2;PMS_P1;PMS_P2;Temp;Humidity;BMP_temperature;BMP_pressure;BME280_temperature;BME280_humidity;BME280_pressure;Samples;Min_cycle;Max_cycle;Signal;HPM_P1;HPM_P2
2022/09/23 01:38:20;;;;;;;12.48;6.07;;;;;;;;;;5805465;22;8328214;-74
2022/09/23 01:41:04;;;;;;;16.60;6.78;;;;;;;;;;6149382;23;20109;-74
2022/09/23 01:43:39;;;;;;;19.48;7.38;;;;;;;;;;6150365;23;20025;-74
2022/09/23 01:46:17;;;;;;;23.23;7.93;;;;;;;;;;6150623;23;20028;-74
2022/09/23 01:48:49;;;;;;;20.17;6.22;;;;;;;;;;6148294;23;20353;-74
2022/09/23 01:51:28;;;;;;;26.95;8.38;;;;;;;;;;6151239;23;20057;-74
2022/09/23 01:54:01;;;;;;;17.63;8.40;;;;;;;;;;6150978;23;20022;-74
2022/09/23 01:56:42;;;;;;;23.60;7.32;;;;;;;;;;6150034;23;20036;-74
2022/09/23 01:59:13;;;;;;;16.23;7.32;;;;;;;;;;6150422;23;20126;-74
2022/09/23 02:01:54;;;;;;;26.48;8.10;;;;;;;;;;6150765;23;20534;-74
2022/09/23 02:04:22;;;;;;;25.40;9.05;;;;;;;;;;6148306;23;20021;-74
2022/09/23 02:06:58;;;;;;;26.65;10.00;;;;;;;;;;6151770;23;20021;-75
2022/09/23 02:09:29;;;;;;;20.00;8.95;;;;;;;;;;6149727;23;20136;-75
2022/09/23 02:12:07;;;;;;;17.48;7.70;;;;;;;;;;6150865;23;20029;-75
2022/09/23 02:14:46;;;;;;;21.50;7.72;;;;;;;;;;6148382;23;20451;-75
2022/09/23 02:17:40;;;;;;;13.55;6.63;;;;;;;;;;6150854;23;20064;-74
2022/09/23 02:20:07;;;;;;;21.05;7.22;;;;;;;;;;6149567;23;20021;-75
2022/09/23 02:22:48;;;;;;;15.15;5.60;;;;;;;;;;6150736;23;20014;-75
2022/09/23 02:25:16;;;;;;;17.27;7.53;;;;;;;;;;6148962;23;20366;-75
2022/09/23 02:27:56;;;;;;;14.48;6.72;;;;;;;;;;6150125;23;20071;-75
2022/09/23 02:30:27;;;;;;;22.65;8.90;;;;;;;;;;6150494;23;20032;-75
2022/09/23 02:33:03;;;;;;;29.92;9.75;;;;;;;;;;6150436;23;20045;-74
2022/09/23 02:35:39;;;;;;;32.40;10.55;;;;;;;;;;6150479;23;20526;-75
2022/09/23 02:38:28;;;;;;;24.10;9.95;;;;;;;;;;6179798;23;20033;-75
2022/09/23 02:41:04;;;;;;;28.10;10.70;;;;;;;;;;6180282;23;20498;-74
2022/09/23 02:43:50;;;;;;;31.50;9.00;;;;;;;;;;6180224;23;20017;-75
2022/09/23 02:46:17;;;;;;;26.85;8.80;;;;;;;;;;6180261;23;20025;-75
2022/09/23 02:48:52;;;;;;;23.92;9.05;;;;;;;;;;6155389;23;20017;-74
2022/09/23 02:51:19;;;;;;;26.70;10.60;;;;;;;;;;6154589;23;20056;-75
2022/09/23 02:53:47;;;;;;;27.80;10.95;;;;;;;;;;6153512;23;20400;-75
2022/09/23 02:56:21;;;;;;;28.48;11.02;;;;;;;;;;6179840;23;20104;-75
2022/09/23 02:58:49;;;;;;;30.25;10.43;;;;;;;;;;6179680;23;20025;-75
2022/09/23 03:01:31;;;;;;;26.52;10.35;;;;;;;;;;6179465;23;20025;-75
2022/09/23 03:04:05;;;;;;;12.35;7.70;;;;;;;;;;6180445;23;20060;-75
2022/09/23 03:06:49;;;;;;;25.42;8.35;;;;;;;;;;6178576;23;20099;-75
2022/09/23 03:09:22;;;;;;;29.33;10.10;;;;;;;;;;6179009;23;20104;-75
2022/09/23 03:12:06;;;;;;;26.98;8.77;;;;;;;;;;6178793;23;20417;-75
2022/09/23 03:14:41;;;;;;;21.42;8.77;;;;;;;;;;6178829;23;20032;-75
2022/09/23 03:17:28;;;;;;;21.25;6.93;;;;;;;;;;6178506;23;20489;-75
2022/09/23 03:19:58;;;;;;;23.00;7.35;;;;;;;;;;6154094;23;20027;-75
2022/09/23 03:22:38;;;;;;;19.65;6.70;;;;;;;;;;6179861;23;20570;-75
2022/09/23 03:25:08;;;;;;;18.75;6.97;;;;;;;;;;6178913;23;20303;-75
2022/09/23 03:27:42;;;;;;;20.67;8.00;;;;;;;;;;6154936;23;20017;-74
2022/09/23 03:30:09;;;;;;;;;;;;;;;;;;6179632;23;20021;-75
2022/09/23 03:32:37;;;;;;;16.88;5.57;;;;;;;;;;6152755;23;19975;-75
2022/09/23 03:35:11;;;;;;;13.10;5.45;;;;;;;;;;6179761;23;20021;-74
2022/09/23 03:37:48;;;;;;;13.30;3.83;;;;;;;;;;6177102;23;20461;-75
2022/09/23 03:40:22;;;;;;;57.95;11.75;;;;;;;;;;6178864;23;20096;-75
2022/09/23 03:42:49;;;;;;;32.40;10.57;;;;;;;;;;6179914;23;20266;-75
2022/09/23 03:45:26;;;;;;;20.75;8.63;;;;;;;;;;6178844;23;20099;-75
2022/09/23 03:47:53;;;;;;;22.48;9.10;;;;;;;;;;6153843;23;20076;-75
2022/09/23 03:50:27;;;;;;;35.63;11.40;;;;;;;;;;6180145;23;20358;-75
2022/09/23 03:52:55;;;;;;;28.77;11.63;;;;;;;;;;6178848;23;20520;-75
2022/09/23 03:55:22;;;;;;;11.20;4.85;;;;;;;;;;6179781;23;20136;-75
2022/09/23 03:57:56;;;;;;;15.02;5.40;;;;;;;;;;6180176;23;20027;-75
2022/09/23 04:00:23;;;;;;;28.98;6.30;;;;;;;;;;6180266;23;20456;-76
2022/09/23 04:02:50;;;;;;;26.02;5.65;;;;;;;;;;6180728;23;20023;-76
2022/09/23 04:05:24;;;;;;;27.95;8.75;;;;;;;;;;6180241;23;20031;-75
2022/09/23 04:07:51;;;;;;;33.50;11.20;;;;;;;;;;6181353;23;20021;-75
2022/09/23 04:10:25;;;;;;;38.70;13.07;;;;;;;;;;6179610;23;20047;-75
2022/09/23 04:12:52;;;;;;;43.05;15.30;;;;;;;;;;6179250;23;20029;-75
2022/09/23 04:15:26;;;;;;;41.85;14.50;;;;;;;;;;6179493;23;20095;-75
2022/09/23 04:17:53;;;;;;;23.75;9.15;;;;;;;;;;6179478;23;20104;-74
2022/09/23 04:20:20;;;;;;;41.03;12.45;;;;;;;;;;6177537;23;20092;-75
2022/09/23 04:22:54;;;;;;;26.58;11.02;;;;;;;;;;6153848;23;20027;-74
2022/09/23 04:25:21;;;;;;;44.58;13.70;;;;;;;;;;6178695;23;20029;-75
2022/09/23 04:27:55;;;;;;;29.00;11.48;;;;;;;;;;6153704;23;20104;-75
2022/09/23 04:30:22;;;;;;;28.67;10.68;;;;;;;;;;6178883;23;20021;-75
2022/09/23 04:32:51;;;;;;;34.30;9.48;;;;;;;;;;6178690;23;20033;-75
2022/09/23 04:35:25;;;;;;;24.48;10.68;;;;;;;;;;6180121;23;20527;-75
2022/09/23 04:38:04;;;;;;;35.63;13.23;;;;;;;;;;6177973;23;20029;-75
2022/09/23 04:40:39;;;;;;;28.15;12.65;;;;;;;;;;6178044;23;20103;-75
2022/09/23 04:43:06;;;;;;;50.35;14.70;;;;;;;;;;6179237;23;20024;-75
2022/09/23 04:45:40;;;;;;;46.10;15.15;;;;;;;;;;6179222;23;20048;-75
2022/09/23 04:48:08;;;;;;;30.88;12.75;;;;;;;;;;6179529;23;20075;-75
2022/09/23 04:50:36;;;;;;;53.00;18.48;;;;;;;;;;6150924;23;20025;-75
2022/09/23 04:53:10;;;;;;;29.02;11.55;;;;;;;;;;6179553;23;20029;-75
2022/09/23 04:55:37;;;;;;;22.05;9.57;;;;;;;;;;6177997;23;20017;-75
2022/09/23 04:58:11;;;;;;;47.45;17.20;;;;;;;;;;6176401;23;20039;-75
2022/09/23 05:00:38;;;;;;;56.13;20.08;;;;;;;;;;6179910;23;20020;-75
2022/09/23 05:03:06;;;;;;;50.50;20.55;;;;;;;;;;6178067;23;20080;-75
2022/09/23 05:05:40;;;;;;;36.20;14.23;;;;;;;;;;6179097;23;20025;-74
2022/09/23 05:08:07;;;;;;;43.10;18.10;;;;;;;;;;6180171;23;20418;-75
2022/09/23 05:10:41;;;;;;;52.13;19.98;;;;;;;;;;6181396;23;20100;-75
2022/09/23 05:13:08;;;;;;;55.42;22.45;;;;;;;;;;6181257;23;20028;-75
2022/09/23 05:15:36;;;;;;;49.42;19.05;;;;;;;;;;6181598;23;20017;-75
2022/09/23 05:18:10;;;;;;;85.18;23.30;;;;;;;;;;6181185;23;20100;-74
2022/09/23 05:20:37;;;;;;;71.50;22.92;;;;;;;;;;6181995;23;20384;-74
2022/09/23 05:23:11;;;;;;;59.13;20.73;;;;;;;;;;6179655;23;20024;-74
2022/09/23 05:25:38;;;;;;;63.35;22.05;;;;;;;;;;6181763;23;20043;-75
2022/09/23 05:28:05;;;;;;;49.78;19.67;;;;;;;;;;6180072;23;20023;-75
2022/09/23 05:30:39;;;;;;;40.90;15.55;;;;;;;;;;6156184;23;20060;-73
2022/09/23 05:33:06;;;;;;;38.58;16.65;;;;;;;;;;6181488;23;20037;-75
2022/09/23 05:35:45;;;;;;;50.38;20.25;;;;;;;;;;6182042;23;20092;-75
2022/09/23 05:38:19;;;;;;;44.75;17.42;;;;;;;;;;6179294;23;20064;-75
2022/09/23 05:40:57;;;;;;;51.92;19.50;;;;;;;;;;6157507;23;20095;-75
2022/09/23 05:43:24;;;;;;;46.45;18.08;;;;;;;;;;6182924;23;20056;-74
2022/09/23 05:45:51;;;;;;;;;;;;;;;;;;6182386;23;20021;-74
2022/09/23 05:48:26;;;;;;;46.63;17.75;;;;;;;;;;6182248;23;19921;-74
2022/09/23 05:50:53;;;;;;;50.88;21.13;;;;;;;;;;6182041;23;20100;-75
2022/09/23 05:53:28;;;;;;;46.78;19.63;;;;;;;;;;6181828;23;20035;-75
2022/09/23 05:55:56;;;;;;;39.38;20.55;;;;;;;;;;6182443;23;20061;-74
2022/09/23 05:58:23;;;;;;;40.70;18.45;;;;;;;;;;6182252;23;20021;-74
2022/09/23 06:00:57;;;;;;;46.10;19.73;;;;;;;;;;6155725;23;20354;-74
2022/09/23 06:03:25;;;;;;;34.25;16.55;;;;;;;;;;6155500;23;20104;-74
2022/09/23 06:05:59;;;;;;;41.80;17.58;;;;;;;;;;6182225;23;20616;-74
2022/09/23 06:08:26;;;;;;;37.58;16.63;;;;;;;;;;6180657;23;20021;-74
2022/09/23 06:11:06;;;;;;;41.90;16.65;;;;;;;;;;6182809;23;20056;-75
2022/09/23 06:13:37;;;;;;;35.00;16.40;;;;;;;;;;6179998;23;20105;-74
2022/09/23 06:16:12;;;;;;;29.17;15.13;;;;;;;;;;6181197;23;20020;-74
2022/09/23 06:18:40;;;;;;;31.52;14.18;;;;;;;;;;6181631;23;20060;-75
2022/09/23 06:21:08;;;;;;;27.35;13.82;;;;;;;;;;6180955;23;20104;-75
2022/09/23 06:23:42;;;;;;;31.35;13.35;;;;;;;;;;6180631;23;20092;-75
2022/09/23 06:26:10;;;;;;;39.08;15.05;;;;;;;;;;6182056;23;20021;-75
2022/09/23 06:28:45;;;;;;;28.65;13.98;;;;;;;;;;6178080;23;20431;-75
2022/09/23 06:31:12;;;;;;;;;;;;;;;;;;6178308;23;20108;-75
2022/09/23 06:33:41;;;;;;;35.15;14.60;;;;;;;;;;6175627;23;19920;-75
2022/09/23 06:36:22;;;;;;;33.03;13.85;;;;;;;;;;6177840;23;20025;-75
2022/09/23 06:39:14;;;;;;;20.65;11.90;;;;;;;;;;6177243;23;20025;-75
2022/09/23 06:41:48;;;;;;;29.20;13.75;;;;;;;;;;6178095;23;20064;-75
2022/09/23 06:44:21;;;;;;;26.63;12.32;;;;;;;;;;6179025;23;20347;-75
2022/09/23 06:46:50;;;;;;;24.25;12.45;;;;;;;;;;6176957;23;20028;-75
2022/09/23 06:49:24;;;;;;;24.08;11.60;;;;;;;;;;6152764;23;20366;-75
2022/09/23 06:51:51;;;;;;;24.10;10.63;;;;;;;;;;6177911;23;20544;-74
2022/09/23 06:54:27;;;;;;;25.15;11.63;;;;;;;;;;6176911;23;20129;-75
2022/09/23 06:56:55;;;;;;;24.70;9.98;;;;;;;;;;6178262;23;20043;-75
2022/09/23 06:59:24;;;;;;;15.45;9.88;;;;;;;;;;6178638;23;20133;-75
2022/09/23 07:01:58;;;;;;;25.13;9.65;;;;;;;;;;6178687;23;20025;-75
2022/09/23 07:04:25;;;;;;;20.48;9.98;;;;;;;;;;6177961;23;20533;-76
2022/09/23 07:06:59;;;;;;;18.17;10.60;;;;;;;;;;6153874;23;20529;-75
2022/09/23 07:09:26;;;;;;;14.35;7.45;;;;;;;;;;6150941;23;20095;-75
2022/09/23 07:11:53;;;;;;;16.60;7.53;;;;;;;;;;6178050;23;20100;-75
2022/09/23 07:14:28;;;;;;;20.90;8.30;;;;;;;;;;6179579;23;20025;-74
2022/09/23 07:16:55;;;;;;;16.05;6.32;;;;;;;;;;6152859;23;20105;-75
2022/09/23 07:19:29;;;;;;;13.65;6.22;;;;;;;;;;6178469;23;20033;-74
2022/09/23 07:21:56;;;;;;;16.17;6.10;;;;;;;;;;6179295;23;20020;-75
2022/09/23 07:24:23;;;;;;;16.08;6.72;;;;;;;;;;6177535;23;20032;-75
2022/09/23 07:26:57;;;;;;;20.55;5.50;;;;;;;;;;6179945;23;20341;-75
2022/09/23 07:29:24;;;;;;;14.32;5.47;;;;;;;;;;6178381;23;20039;-75
2022/09/23 07:32:11;;;;;;;11.30;5.13;;;;;;;;;;6175140;23;20029;-75
2022/09/23 07:34:41;;;;;;;17.00;5.00;;;;;;;;;;6176386;23;20059;-75
2022/09/23 07:37:23;;;;;;;11.90;4.65;;;;;;;;;;6145826;23;20496;-74
2022/09/23 07:39:57;;;;;;;17.00;4.40;;;;;;;;;;6148079;23;20570;-74
2022/09/23 07:42:32;;;;;;;9.00;3.28;;;;;;;;;;6146863;23;20088;-74
2022/09/23 07:45:01;;;;;;;17.25;3.92;;;;;;;;;;6146320;23;20025;-75
2022/09/23 07:47:28;;;;;;;11.10;4.20;;;;;;;;;;6145758;23;20021;-74
2022/09/23 07:50:02;;;;;;;13.32;3.88;;;;;;;;;;6147650;23;20026;-74
2022/09/23 07:52:29;;;;;;;14.48;3.53;;;;;;;;;;6147113;23;20109;-74
2022/09/23 07:55:04;;;;;;;9.20;3.65;;;;;;;;;;6148052;23;20096;-75
2022/09/23 07:57:31;;;;;;;10.07;3.67;;;;;;;;;;6146485;23;20242;-74
2022/09/23 07:59:59;;;;;;;6.95;3.13;;;;;;;;;;6148220;23;20025;-75
2022/09/23 08:02:34;;;;;;;9.70;3.10;;;;;;;;;;6147343;23;20021;-74
2022/09/23 08:05:02;;;;;;;13.57;3.13;;;;;;;;;;6147584;23;20022;-75
2022/09/23 08:07:36;;;;;;;9.50;3.00;;;;;;;;;;6147715;23;20021;-75
2022/09/23 08:10:06;;;;;;;9.75;2.75;;;;;;;;;;6146712;23;20022;-74
2022/09/23 08:12:40;;;;;;;9.88;3.20;;;;;;;;;;6147776;23;20508;-74
2022/09/23 08:15:07;;;;;;;12.18;3.72;;;;;;;;;;6146628;23;20028;-75
2022/09/23 08:17:35;;;;;;;17.88;4.07;;;;;;;;;;6148177;23;20100;-75
2022/09/23 08:20:42;;;;;;;11.38;3.55;;;;;;;;;;6146204;23;20479;-74
2022/09/23 08:22:56;;;;;;;11.65;3.47;;;;;;;;;;6144585;23;20415;-75
2022/09/23 08:25:31;;;;;;;9.40;3.28;;;;;;;;;;6145193;23;20072;-74
2022/09/23 08:28:00;;;;;;;6.35;2.80;;;;;;;;;;6147203;23;20018;-74
2022/09/23 08:30:28;;;;;;;14.70;3.20;;;;;;;;;;6145878;23;20763;-75
2022/09/23 08:33:02;;;;;;;10.15;2.83;;;;;;;;;;6144989;23;20349;-75
2022/09/23 08:35:29;;;;;;;10.30;3.45;;;;;;;;;;6146807;23;20028;-75
2022/09/23 08:38:09;;;;;;;11.50;3.70;;;;;;;;;;6164643;23;20319;-75
2022/09/23 08:40:46;;;;;;;7.78;2.90;;;;;;;;;;6150472;23;20025;-75
2022/09/23 08:43:24;;;;;;;15.40;2.97;;;;;;;;;;6177792;23;20367;-75
2022/09/23 08:45:52;;;;;;;9.00;3.00;;;;;;;;;;6152008;23;20350;-75
2022/09/23 08:48:26;;;;;;;14.55;2.90;;;;;;;;;;6179374;23;20398;-75
2022/09/23 08:51:07;;;;;;;9.10;2.80;;;;;;;;;;6178836;23;20506;-75
2022/09/23 08:53:36;;;;;;;11.15;2.80;;;;;;;;;;6180310;23;20031;-76
2022/09/23 08:56:10;;;;;;;10.73;2.55;;;;;;;;;;6154684;23;20025;-74
2022/09/23 08:58:55;;;;;;;8.95;2.80;;;;;;;;;;6177791;23;20031;-75
2022/09/23 09:01:43;;;;;;;10.88;2.75;;;;;;;;;;6178204;23;20040;-74
2022/09/23 09:04:15;;;;;;;7.82;2.97;;;;;;;;;;6178281;23;20021;-75
2022/09/23 09:06:56;;;;;;;6.50;2.75;;;;;;;;;;6153723;23;20037;-75
2022/09/23 09:10:02;;;;;;;12.80;3.17;;;;;;;;;;6180772;23;20021;-75
2022/09/23 09:12:50;;;;;;;10.02;3.13;;;;;;;;;;6180544;23;20025;-75
2022/09/23 09:15:26;;;;;;;8.50;2.70;;;;;;;;;;6180197;23;20474;-75
2022/09/23 09:18:00;;;;;;;12.95;3.45;;;;;;;;;;6181118;23;20099;-75
2022/09/23 09:20:56;;;;;;;7.35;3.15;;;;;;;;;;6155521;23;20021;-75
2022/09/23 09:23:28;;;;;;;11.95;3.92;;;;;;;;;;6154866;23;20033;-75
2022/09/23 09:26:02;;;;;;;15.00;3.22;;;;;;;;;;6180825;23;20096;-75
2022/09/23 09:28:35;;;;;;;12.38;3.40;;;;;;;;;;6181353;23;20040;-75
2022/09/23 09:31:20;;;;;;;11.75;3.88;;;;;;;;;;6180593;23;20096;-75
2022/09/23 09:33:57;;;;;;;10.40;3.50;;;;;;;;;;6180013;23;20024;-75
2022/09/23 09:36:36;;;;;;;10.73;3.30;;;;;;;;;;6176373;23;20108;-75
2022/09/23 09:39:18;;;;;;;9.32;3.35;;;;;;;;;;6177968;23;20028;-75
2022/09/23 09:41:52;;;;;;;7.93;3.17;;;;;;;;;;6176914;23;20025;-75
2022/09/23 09:44:36;;;;;;;13.88;3.88;;;;;;;;;;6177539;23;20813;-75
2022/09/23 09:47:06;;;;;;;13.83;2.87;;;;;;;;;;6180097;23;20112;-75
2022/09/23 09:50:00;;;;;;;11.40;4.00;;;;;;;;;;6178995;23;20036;-75
2022/09/23 09:52:28;;;;;;;9.20;2.97;;;;;;;;;;6148420;23;20384;-75
2022/09/23 09:55:12;;;;;;;8.85;2.83;;;;;;;;;;6178388;23;20021;-75
2022/09/23 09:57:51;;;;;;;9.40;3.08;;;;;;;;;;6174117;23;20467;-75
2022/09/23 10:00:25;;;;;;;15.82;3.78;;;;;;;;;;6176692;23;20021;-75
2022/09/23 10:02:52;;;;;;;;;;;;;;;;;;6178522;23;20073;-75
2022/09/23 10:05:27;;;;;;;9.82;2.78;;;;;;;;;;6176284;23;20443;-76
2022/09/23 10:07:54;;;;;;;13.65;2.72;;;;;;;;;;6176332;23;20025;-74
2022/09/23 10:10:28;;;;;;;9.73;2.75;;;;;;;;;;6154123;23;20017;-75
2022/09/23 10:13:13;;;;;;;8.57;2.90;;;;;;;;;;6177068;23;20021;-75
2022/09/23 10:15:47;;;;;;;12.63;3.15;;;;;;;;;;6150435;23;20021;-75
2022/09/23 10:18:28;;;;;;;7.60;2.75;;;;;;;;;;6149606;23;20031;-75
2022/09/23 10:21:11;;;;;;;7.47;2.85;;;;;;;;;;6177521;23;20067;-75
2022/09/23 10:23:39;;;;;;;12.45;2.72;;;;;;;;;;6175728;23;20048;-75
2022/09/23 10:26:16;;;;;;;11.02;3.17;;;;;;;;;;6176285;23;20107;-74
2022/09/23 10:28:46;;;;;;;11.38;3.20;;;;;;;;;;6178010;23;20031;-75
2022/09/23 10:31:27;;;;;;;10.20;3.05;;;;;;;;;;6178467;23;20111;-75
2022/09/23 10:33:58;;;;;;;9.50;2.55;;;;;;;;;;6178539;23;20025;-75
2022/09/23 10:36:32;;;;;;;8.98;3.10;;;;;;;;;;6179054;23;20027;-75
2022/09/23 10:47:44;;;;;;;9.00;2.90;;;;;;;;;;6177663;23;20028;-75
2022/09/23 10:50:18;;;;;;;9.27;3.40;;;;;;;;;;6176200;23;20017;-75
2022/09/23 10:53:01;;;;;;;13.00;3.10;;;;;;;;;;6177371;23;20031;-75
2022/09/23 10:55:42;;;;;;;9.50;3.17;;;;;;;;;;6176391;23;20277;-75
2022/09/23 10:58:34;;;;;;;9.40;3.60;;;;;;;;;;6177124;23;20025;-75
2022/09/23 11:01:20;;;;;;;13.57;3.03;;;;;;;;;;6176447;23;20455;-75
2022/09/23 11:04:06;;;;;;;12.07;3.20;;;;;;;;;;6151365;23;20029;-75
2022/09/23 11:06:45;;;;;;;11.00;3.58;;;;;;;;;;6150413;23;20029;-76
2022/09/23 11:09:39;;;;;;;9.02;3.42;;;;;;;;;;6177677;23;20021;-75
2022/09/23 11:12:30;;;;;;;13.53;3.37;;;;;;;;;;6175789;23;20036;-75
2022/09/23 11:15:09;;;;;;;9.82;3.45;;;;;;;;;;6127913;23;20024;-74
2022/09/23 11:18:06;;;;;;;12.75;3.92;;;;;;;;;;6177473;23;20036;-75
2022/09/23 11:20:58;;;;;;;11.30;3.55;;;;;;;;;;6157427;23;20035;-74
2022/09/23 11:23:41;;;;;;;9.35;3.53;;;;;;;;;;6178986;23;20107;-75
2022/09/23 11:26:29;;;;;;;7.78;3.40;;;;;;;;;;6178280;23;20021;-75
2022/09/23 11:29:11;;;;;;;10.00;3.28;;;;;;;;;;6180200;23;20059;-75
2022/09/23 11:31:58;;;;;;;9.48;3.40;;;;;;;;;;6180648;23;20076;-75
2022/09/23 11:34:52;;;;;;;9.45;3.50;;;;;;;;;;6178746;23;20060;-75
2022/09/23 11:37:43;;;;;;;8.70;4.43;;;;;;;;;;6177223;23;20474;-74
2022/09/23 11:40:23;;;;;;;14.70;3.70;;;;;;;;;;6180957;23;20021;-75
2022/09/23 11:43:09;;;;;;;12.77;4.13;;;;;;;;;;6180853;23;20032;-75
2022/09/23 11:45:39;;;;;;;7.50;3.85;;;;;;;;;;6180096;23;20028;-74
2022/09/23 11:48:16;;;;;;;8.38;4.20;;;;;;;;;;6179634;23;20088;-75
2022/09/23 11:50:50;;;;;;;18.65;4.30;;;;;;;;;;6180576;23;20067;-75
2022/09/23 11:53:27;;;;;;;8.45;4.20;;;;;;;;;;6180170;23;20160;-75
2022/09/23 11:56:02;;;;;;;9.57;4.63;;;;;;;;;;6180525;23;20087;-75
2022/09/23 11:58:48;;;;;;;8.40;3.70;;;;;;;;;;6180278;23;20032;-75
2022/09/23 12:01:30;;;;;;;9.38;4.20;;;;;;;;;;6156771;23;20028;-75
2022/09/23 12:04:26;;;;;;;11.68;3.53;;;;;;;;;;6180279;23;20071;-76
2022/09/23 12:06:59;;;;;;;9.90;3.35;;;;;;;;;;6180364;23;20466;-76
2022/09/23 12:09:39;;;;;;;14.77;4.30;;;;;;;;;;6180509;23;20092;-74
2022/09/23 12:12:27;;;;;;;10.73;3.95;;;;;;;;;;6180481;23;20028;-74
2022/09/23 12:15:04;;;;;;;16.83;4.10;;;;;;;;;;6180397;23;20039;-75
2022/09/23 12:17:50;;;;;;;11.57;4.05;;;;;;;;;;6180042;23;20463;-75
2022/09/23 12:20:43;;;;;;;11.43;4.28;;;;;;;;;;6179057;23;20107;-75
2022/09/23 12:23:16;;;;;;;9.98;3.05;;;;;;;;;;6153389;23;20820;-75
2022/09/23 12:26:07;;;;;;;11.23;3.65;;;;;;;;;;6179755;23;20025;-75
2022/09/23 12:28:34;;;;;;;10.85;3.42;;;;;;;;;;6177709;23;20462;-75
2022/09/23 12:31:10;;;;;;;8.95;3.60;;;;;;;;;;6179538;23;20025;-75
2022/09/23 12:33:38;;;;;;;9.77;3.35;;;;;;;;;;6179515;23;20350;-75
2022/09/23 12:36:06;;;;;;;12.45;3.92;;;;;;;;;;6178286;23;20351;-75
2022/09/23 12:38:49;;;;;;;10.10;3.40;;;;;;;;;;6177590;23;20017;-75
2022/09/23 12:41:23;;;;;;;16.27;3.67;;;;;;;;;;6179909;23;20107;-75
2022/09/23 12:43:59;;;;;;;13.13;3.30;;;;;;;;;;6179540;23;20021;-75
2022/09/23 12:46:27;;;;;;;11.95;3.35;;;;;;;;;;6180091;23;20060;-75
2022/09/23 12:49:03;;;;;;;13.07;2.92;;;;;;;;;;6154661;23;20092;-75
2022/09/23 12:51:31;;;;;;;6.47;2.92;;;;;;;;;;6179170;23;20025;-75
2022/09/23 12:54:06;;;;;;;10.73;3.47;;;;;;;;;;6178586;23;20028;-75
2022/09/23 12:56:33;;;;;;;9.70;3.58;;;;;;;;;;6179511;23;20521;-75
2022/09/23 12:59:19;;;;;;;9.98;3.10;;;;;;;;;;6155308;23;20025;-75
2022/09/23 13:01:46;;;;;;;7.45;3.08;;;;;;;;;;6153608;23;20017;-75
2022/09/23 13:07:15;;;;;;;7.47;3.35;;;;;;;;;;6178720;23;20361;-75
2022/09/23 13:09:50;;;;;;;9.07;3.47;;;;;;;;;;6180016;23;20021;-75
2022/09/23 13:12:24;;;;;;;11.00;3.63;;;;;;;;;;6180107;23;20025;-75
2022/09/23 13:15:02;;;;;;;10.75;3.38;;;;;;;;;;6154793;23;20035;-75
2022/09/23 13:17:35;;;;;;;9.05;3.05;;;;;;;;;;6151684;23;20065;-75
2022/09/23 13:20:18;;;;;;;12.45;3.58;;;;;;;;;;6180225;23;20100;-75
2022/09/23 13:22:52;;;;;;;9.50;3.53;;;;;;;;;;6179678;23;20554;-75
2022/09/23 13:25:24;;;;;;;10.68;3.80;;;;;;;;;;6178069;23;20025;-75
2022/09/23 13:28:00;;;;;;;9.07;3.38;;;;;;;;;;6179516;23;20043;-75
2022/09/23 13:30:27;;;;;;;9.00;3.55;;;;;;;;;;6180946;23;20021;-74
2022/09/23 13:33:04;;;;;;;11.82;3.83;;;;;;;;;;6180329;23;20079;-75
2022/09/23 13:35:34;;;;;;;7.88;4.47;;;;;;;;;;6180256;23;20025;-75
2022/09/23 13:38:18;;;;;;;11.02;3.40;;;;;;;;;;6179504;23;20458;-74
2022/09/23 13:41:04;;;;;;;10.65;3.30;;;;;;;;;;6176527;23;20025;-75
2022/09/23 13:43:43;;;;;;;10.95;3.60;;;;;;;;;;6154109;23;20031;-75
2022/09/23 13:46:16;;;;;;;11.38;3.85;;;;;;;;;;6177863;23;20021;-75
2022/09/23 13:48:53;;;;;;;12.48;3.38;;;;;;;;;;6179281;23;20107;-75
2022/09/23 13:51:23;;;;;;;9.70;2.92;;;;;;;;;;6179259;23;20025;-75
2022/09/23 13:53:59;;;;;;;8.80;2.60;;;;;;;;;;6152719;23;20020;-74
2022/09/23 13:56:27;;;;;;;9.65;2.75;;;;;;;;;;6178553;23;20120;-74
2022/09/23 13:59:23;;;;;;;8.50;2.58;;;;;;;;;;6153972;23;20096;-75
2022/09/23 14:02:01;;;;;;;7.88;2.55;;;;;;;;;;6177894;23;20028;-75
2022/09/23 14:04:35;;;;;;;12.45;3.20;;;;;;;;;;6152197;23;20025;-74
2022/09/23 14:07:02;;;;;;;7.20;2.40;;;;;;;;;;6178648;23;20031;-75
2022/09/23 14:09:36;;;;;;;8.48;2.50;;;;;;;;;;6177749;23;20059;-75
2022/09/23 14:12:05;;;;;;;13.70;3.10;;;;;;;;;;6178621;23;20087;-74
2022/09/23 14:14:34;;;;;;;16.00;2.72;;;;;;;;;;6177933;23;20104;-75
2022/09/23 14:17:09;;;;;;;9.18;2.67;;;;;;;;;;6177033;23;20021;-75
2022/09/23 14:19:43;;;;;;;8.63;2.50;;;;;;;;;;6177738;23;20639;-75
2022/09/23 14:22:29;;;;;;;8.82;2.50;;;;;;;;;;6178425;23;20412;-75
2022/09/23 14:25:03;;;;;;;8.27;2.33;;;;;;;;;;6177644;23;20037;-75
2022/09/23 14:27:30;;;;;;;;;;;;;;;;;;6178418;23;20021;-75
2022/09/23 14:30:04;;;;;;;9.32;2.58;;;;;;;;;;6178994;23;19959;-75
2022/09/23 14:32:31;;;;;;;;;;;;;;;;;;6178998;23;20025;-75
2022/09/23 14:35:26;;;;;;;7.03;2.95;;;;;;;;;;6153383;23;19967;-75
2022/09/23 14:41:14;;;;;;;4.75;2.45;;;;;;;;;;6178216;23;20024;-75
2022/09/23 14:43:48;;;;;;;7.07;2.30;;;;;;;;;;6177552;23;20024;-75
2022/09/23 14:46:23;;;;;;;5.90;2.00;;;;;;;;;;6175835;23;20036;-75
2022/09/23 14:48:53;;;;;;;8.77;2.60;;;;;;;;;;6177220;23;20063;-75
2022/09/23 14:51:46;;;;;;;7.03;2.17;;;;;;;;;;6176973;23;20371;-75
2022/09/23 14:54:32;;;;;;;12.00;2.55;;;;;;;;;;6176682;23;20029;-75
2022/09/23 14:57:24;;;;;;;7.47;2.13;;;;;;;;;;6178768;23;20055;-75
2022/09/23 14:59:54;;;;;;;11.43;2.35;;;;;;;;;;6177790;23;20021;-75
2022/09/23 15:02:30;;;;;;;6.00;2.35;;;;;;;;;;6176568;23;20072;-75
2022/09/23 15:05:26;;;;;;;10.77;2.70;;;;;;;;;;6160048;23;20100;-75
2022/09/23 15:08:01;;;;;;;8.80;2.55;;;;;;;;;;6132598;23;20121;-75
2022/09/23 15:10:33;;;;;;;10.25;2.40;;;;;;;;;;6148149;23;20031;-75
2022/09/23 15:13:08;;;;;;;5.03;1.77;;;;;;;;;;6148349;23;20061;-75
2022/09/23 15:15:36;;;;;;;8.88;2.83;;;;;;;;;;6145036;23;20052;-75
2022/09/23 15:18:07;;;;;;;4.75;2.17;;;;;;;;;;6147139;23;20562;-75
2022/09/23 15:20:48;;;;;;;6.20;2.20;;;;;;;;;;6148045;23;20031;-74
2022/09/23 15:23:38;;;;;;;13.27;2.45;;;;;;;;;;6147461;23;20109;-75
2022/09/23 15:26:19;;;;;;;8.82;2.40;;;;;;;;;;6140784;23;20022;-75
2022/09/23 15:28:47;;;;;;;7.40;2.13;;;;;;;;;;6147565;23;20056;-75
2022/09/23 15:31:25;;;;;;;9.65;2.20;;;;;;;;;;6147073;23;20105;-75
2022/09/23 15:33:52;;;;;;;6.32;2.30;;;;;;;;;;6147745;23;20036;-75
2022/09/23 15:36:27;;;;;;;11.38;2.47;;;;;;;;;;6146378;23;20029;-75
2022/09/23 15:38:56;;;;;;;5.68;2.40;;;;;;;;;;6145942;23;20470;-75
2022/09/23 15:41:32;;;;;;;12.85;2.47;;;;;;;;;;6147697;23;20072;-75
2022/09/23 15:44:04;;;;;;;6.15;2.25;;;;;;;;;;6148633;23;20096;-74
2022/09/23 15:46:38;;;;;;;12.30;2.20;;;;;;;;;;6147763;23;20018;-75
2022/09/23 15:49:06;;;;;;;;;;;;;;;;;;6150143;23;20030;-74
2022/09/23 15:51:41;;;;;;;6.88;2.40;;;;;;;;;;6170921;23;19999;-75
2022/09/23 15:54:11;;;;;;;6.60;1.83;;;;;;;;;;6147364;23;20457;-75
2022/09/23 15:56:46;;;;;;;7.07;2.33;;;;;;;;;;6147703;23;20113;-75
2022/09/23 15:59:13;;;;;;;8.95;2.33;;;;;;;;;;6147890;23;20199;-74
2022/09/23 16:01:47;;;;;;;5.18;1.88;;;;;;;;;;6147248;23;20017;-75
2022/09/23 16:04:15;;;;;;;6.40;2.08;;;;;;;;;;6146349;23;20025;-75
2022/09/23 16:06:44;;;;;;;9.00;2.10;;;;;;;;;;6145803;23;20083;-75
2022/09/23 16:09:18;;;;;;;7.47;1.88;;;;;;;;;;6145929;23;20104;-75
2022/09/23 16:11:48;;;;;;;6.50;1.90;;;;;;;;;;6147611;23;20032;-75
2022/09/23 16:14:25;;;;;;;5.30;2.25;;;;;;;;;;6123119;23;20021;-75
2022/09/23 16:16:52;;;;;;;7.00;2.13;;;;;;;;;;6147568;23;20100;-75
2022/09/23 16:19:26;;;;;;;16.58;5.07;;;;;;;;;;6147793;23;20096;-75
2022/09/23 16:21:53;;;;;;;8.77;6.10;;;;;;;;;;6147214;23;20028;-75
2022/09/23 16:24:28;;;;;;;4.55;2.40;;;;;;;;;;6142131;23;20354;-76
2022/09/23 16:26:58;;;;;;;;;;;;;;;;;;6144099;23;20137;-75
2022/09/23 16:29:26;;;;;;;8.25;4.55;;;;;;;;;;6166811;23;19927;-75
2022/09/23 16:32:00;;;;;;;9.30;3.33;;;;;;;;;;6145614;23;20092;-75
2022/09/23 16:34:28;;;;;;;9.93;2.25;;;;;;;;;;6143686;23;20127;-75
2022/09/23 16:37:03;;;;;;;4.10;1.58;;;;;;;;;;6145644;23;20056;-75
2022/09/23 16:39:40;;;;;;;9.02;2.35;;;;;;;;;;6143788;23;20077;-75
2022/09/23 16:42:13;;;;;;;9.57;2.40;;;;;;;;;;6145520;23;20025;-75
2022/09/23 16:44:40;;;;;;;6.68;2.20;;;;;;;;;;6142934;23;20025;-75
2022/09/23 16:47:07;;;;;;;5.75;2.40;;;;;;;;;;6146457;23;20031;-74
2022/09/23 16:49:41;;;;;;;10.93;2.50;;;;;;;;;;6145216;23;20105;-75
2022/09/23 16:52:10;;;;;;;6.18;2.55;;;;;;;;;;6145825;23;20021;-75
2022/09/23 16:54:46;;;;;;;6.72;2.08;;;;;;;;;;6145479;23;20025;-75
2022/09/23 16:57:13;;;;;;;8.52;2.33;;;;;;;;;;6145557;23;20108;-75
2022/09/23 17:05:26;;;;;;;10.80;2.20;;;;;;;;;;6148178;23;20096;-74
2022/09/23 17:07:53;;;;;;;9.93;2.20;;;;;;;;;;6145983;23;20031;-75
2022/09/23 17:10:27;;;;;;;14.20;2.30;;;;;;;;;;6148103;23;20104;-75
2022/09/23 17:12:54;;;;;;;8.35;2.10;;;;;;;;;;6147774;23;20036;-75
2022/09/23 17:15:28;;;;;;;10.32;2.70;;;;;;;;;;6145343;23;20036;-75